Time;durP1;ratioP1;P1;durP2;ratioP2;P2;SDS_P1;SDS_P2;PMS_P1;PMS_P2;Temp;Humidity;BMP_temperature;BMP_pressure;BME280_temperature;BME280_humidity;BME280_pressure;Samples;Min_cycle;Max_cycle;Signal;HPM_P1;HPM_P2
2022/11/29 00:00:00;;;;;;;46.03;32.60;;;4.60;99.90;;;;;;5026811;28;20990;-71
2022/11/29 00:02:26;;;;;;;48.80;31.10;;;4.60;99.90;;;;;;5028201;28;20206;-67
2022/11/29 00:04:51;;;;;;;48.63;31.30;;;4.60;99.90;;;;;;5027451;28;20612;-67
2022/11/29 00:07:16;;;;;;;45.83;29.73;;;4.60;99.90;;;;;;5025754;28;20683;-68
2022/11/29 00:09:42;;;;;;;40.67;29.33;;;4.60;99.90;;;;;;5026573;28;20198;-68
2022/11/29 00:12:10;;;;;;;48.33;28.83;;;4.70;99.90;;;;;;5021210;28;20211;-68
2022/11/29 00:14:36;;;;;;;43.07;28.00;;;4.70;99.90;;;;;;5023845;28;20206;-67
2022/11/29 00:17:03;;;;;;;45.53;29.50;;;4.70;99.90;;;;;;5026415;28;20218;-67
2022/11/29 00:19:29;;;;;;;46.23;28.50;;;4.70;99.90;;;;;;5025135;28;20213;-65
2022/11/29 00:21:55;;;;;;;39.47;26.37;;;4.70;99.90;;;;;;5024777;28;20215;-68
2022/11/29 00:24:20;;;;;;;41.20;25.73;;;4.70;99.90;;;;;;5023841;28;20214;-67
2022/11/29 00:26:46;;;;;;;39.03;26.80;;;4.70;99.90;;;;;;5025486;28;20272;-65
2022/11/29 00:29:12;;;;;;;37.00;25.97;;;4.70;99.90;;;;;;5021217;28;20257;-66
2022/11/29 00:31:38;;;;;;;38.07;25.13;;;4.80;99.90;;;;;;5023878;28;20211;-67
2022/11/29 00:34:05;;;;;;;36.33;25.20;;;4.80;99.90;;;;;;5029894;28;20230;-66
2022/11/29 00:36:34;;;;;;;33.80;24.10;;;4.80;99.90;;;;;;5016573;28;20222;-67
2022/11/29 00:39:00;;;;;;;35.20;22.87;;;4.80;99.90;;;;;;5028281;28;20665;-65
2022/11/29 00:41:26;;;;;;;36.80;24.87;;;4.80;99.90;;;;;;5030508;28;20226;-69
2022/11/29 00:43:52;;;;;;;33.97;23.03;;;4.80;99.90;;;;;;5027591;28;20198;-67
2022/11/29 00:46:17;;;;;;;33.00;23.33;;;4.80;99.90;;;;;;5030669;28;20211;-75
2022/11/29 00:48:43;;;;;;;35.13;21.83;;;4.80;99.90;;;;;;5023893;28;20286;-72
2022/11/29 00:51:08;;;;;;;33.00;24.30;;;4.80;99.90;;;;;;5030776;28;20294;-68
2022/11/29 00:53:35;;;;;;;29.10;20.50;;;4.70;99.90;;;;;;5031851;28;20214;-66
2022/11/29 00:56:01;;;;;;;33.23;23.10;;;4.70;99.90;;;;;;5030935;28;20195;-66
2022/11/29 00:58:27;;;;;;;34.90;23.03;;;4.70;99.90;;;;;;5034426;28;20230;-66
2022/11/29 01:00:53;;;;;;;35.93;23.13;;;4.60;99.90;;;;;;5030687;28;20225;-66
2022/11/29 01:03:19;;;;;;;31.30;23.73;;;4.60;99.90;;;;;;5023998;28;20205;-66
2022/11/29 01:05:45;;;;;;;37.27;24.43;;;4.50;99.90;;;;;;5023387;28;20229;-66
2022/11/29 01:08:12;;;;;;;38.33;24.90;;;4.50;99.90;;;;;;5022448;28;20669;-66
2022/11/29 01:10:37;;;;;;;33.30;23.23;;;4.50;99.90;;;;;;5019894;28;20195;-66
2022/11/29 01:13:03;;;;;;;38.37;24.40;;;4.50;99.90;;;;;;5025740;28;20198;-64
2022/11/29 01:15:29;;;;;;;35.07;24.33;;;4.50;99.90;;;;;;5032667;28;20214;-66
2022/11/29 01:17:54;;;;;;;37.10;25.20;;;4.50;99.90;;;;;;5030234;28;20631;-64
2022/11/29 01:20:20;;;;;;;38.43;25.23;;;4.50;99.90;;;;;;5028047;28;20560;-66
2022/11/29 01:22:45;;;;;;;31.83;22.07;;;4.60;99.90;;;;;;5021189;28;20227;-65
2022/11/29 01:25:14;;;;;;;38.73;25.00;;;4.60;99.90;;;;;;5030485;28;20253;-65
2022/11/29 01:27:40;;;;;;;38.20;24.50;;;4.60;99.90;;;;;;5027014;28;20333;-64
2022/11/29 01:30:07;;;;;;;34.10;22.03;;;4.60;99.90;;;;;;5029940;28;20281;-61
2022/11/29 01:32:32;;;;;;;34.10;24.40;;;4.70;99.90;;;;;;5024669;28;20204;-61
2022/11/29 01:34:58;;;;;;;35.20;23.90;;;4.70;99.90;;;;;;5024263;28;20214;-61
2022/11/29 01:37:23;;;;;;;41.00;25.10;;;4.70;99.90;;;;;;5031743;28;20656;-62
2022/11/29 01:39:49;;;;;;;37.07;25.20;;;4.70;99.90;;;;;;5025372;28;20241;-62
2022/11/29 01:42:15;;;;;;;37.60;24.73;;;4.70;99.90;;;;;;5028569;28;20322;-61
2022/11/29 01:44:43;;;;;;;37.60;24.57;;;4.70;99.90;;;;;;5026389;28;20217;-61
2022/11/29 01:47:09;;;;;;;39.30;24.13;;;4.80;99.90;;;;;;5030488;28;20559;-61
2022/11/29 01:49:39;;;;;;;33.70;23.57;;;4.70;99.90;;;;;;5031852;28;20210;-60
2022/11/29 01:52:15;;;;;;;37.77;23.17;;;4.80;99.90;;;;;;5027776;28;20195;-60
2022/11/29 01:54:43;;;;;;;36.23;23.90;;;4.70;99.90;;;;;;5027506;28;20270;-60
2022/11/29 01:57:10;;;;;;;36.27;24.57;;;4.80;99.90;;;;;;5023508;28;20216;-60
2022/11/29 01:59:40;;;;;;;37.93;24.60;;;4.80;99.90;;;;;;5024601;28;20290;-71
2022/11/29 02:02:12;;;;;;;40.57;25.27;;;4.80;99.90;;;;;;5026316;28;20211;-63
2022/11/29 02:04:40;;;;;;;31.03;24.17;;;4.90;99.90;;;;;;5022213;28;20238;-63
2022/11/29 02:07:06;;;;;;;33.90;22.60;;;4.90;99.90;;;;;;5019632;28;20536;-58
2022/11/29 02:09:32;;;;;;;37.70;23.93;;;4.90;99.90;;;;;;5025751;28;20207;-62
2022/11/29 02:12:38;;;;;;;34.70;23.63;;;4.90;99.90;;;;;;5024811;28;20217;-65
2022/11/29 02:15:19;;;;;;;38.47;25.60;;;4.80;99.90;;;;;;5026224;28;20241;-66
2022/11/29 02:17:55;;;;;;;39.70;24.73;;;4.80;99.90;;;;;;5020904;28;20314;-66
2022/11/29 02:20:21;;;;;;;32.77;23.40;;;4.80;99.90;;;;;;5028191;28;20214;-67
2022/11/29 02:22:59;;;;;;;39.43;24.70;;;4.80;99.90;;;;;;5026463;28;20692;-66
2022/11/29 02:25:41;;;;;;;40.50;23.87;;;4.80;99.90;;;;;;5031137;28;20190;-66
2022/11/29 02:28:44;;;;;;;33.57;23.33;;;4.80;99.90;;;;;;5028137;28;20191;-65
2022/11/29 02:31:47;;;;;;;35.40;25.53;;;4.90;99.90;;;;;;5026487;28;20635;-64
2022/11/29 02:34:50;;;;;;;39.57;23.93;;;4.80;99.90;;;;;;5028782;28;20595;-63
2022/11/29 02:37:41;;;;;;;34.20;23.90;;;4.80;99.90;;;;;;5027133;28;20203;-61
2022/11/29 02:40:32;;;;;;;34.33;23.93;;;4.80;99.90;;;;;;5025868;28;20264;-62
2022/11/29 02:43:12;;;;;;;35.03;23.47;;;4.80;99.90;;;;;;5032309;28;20191;-62
2022/11/29 02:46:08;;;;;;;33.47;24.37;;;4.90;99.90;;;;;;5026667;28;20199;-63
2022/11/29 02:49:03;;;;;;;40.33;25.47;;;4.80;99.90;;;;;;5013678;28;20213;-63
2022/11/29 02:52:01;;;;;;;34.50;23.73;;;4.80;99.90;;;;;;5025223;28;20191;-62
2022/11/29 02:54:37;;;;;;;36.60;24.93;;;4.80;99.90;;;;;;5027176;28;20203;-63
2022/11/29 02:57:26;;;;;;;37.30;24.47;;;4.80;99.90;;;;;;5027416;28;20198;-63
2022/11/29 03:00:03;;;;;;;40.53;26.43;;;4.80;99.90;;;;;;5025014;28;20209;-62
2022/11/29 03:02:51;;;;;;;40.20;26.43;;;4.80;99.90;;;;;;5033153;28;20205;-63
2022/11/29 03:05:40;;;;;;;37.00;26.00;;;4.80;99.90;;;;;;5030046;28;20282;-63
2022/11/29 03:08:19;;;;;;;37.07;23.97;;;4.80;99.90;;;;;;5023275;28;20606;-62
2022/11/29 03:10:50;;;;;;;32.83;23.03;;;4.80;99.90;;;;;;5028681;28;20260;-63
2022/11/29 03:13:26;;;;;;;41.63;25.67;;;4.70;99.90;;;;;;5034747;28;20278;-63
2022/11/29 03:16:20;;;;;;;37.13;26.63;;;4.60;99.90;;;;;;5035304;28;20544;-64
2022/11/29 03:19:09;;;;;;;39.13;25.93;;;4.60;99.90;;;;;;5035635;28;20207;-64
2022/11/29 03:21:40;;;;;;;39.60;27.17;;;4.70;99.90;;;;;;5037379;28;20223;-67
2022/11/29 03:24:17;;;;;;;40.37;27.07;;;4.60;99.90;;;;;;5037288;28;20281;-63
2022/11/29 03:26:51;;;;;;;41.13;27.00;;;4.70;99.90;;;;;;5037485;28;20191;-62
2022/11/29 03:29:33;;;;;;;41.10;27.07;;;4.70;99.90;;;;;;5036950;28;20198;-62
2022/11/29 03:32:06;;;;;;;38.97;26.20;;;4.70;99.90;;;;;;5034049;28;20210;-62
2022/11/29 03:34:58;;;;;;;41.97;25.57;;;4.70;99.90;;;;;;5033828;28;20234;-63
2022/11/29 03:38:01;;;;;;;39.50;24.90;;;4.70;99.90;;;;;;5034949;28;20209;-63
2022/11/29 03:40:51;;;;;;;42.07;28.77;;;4.60;99.90;;;;;;5036970;28;20228;-63
2022/11/29 03:43:29;;;;;;;39.30;25.60;;;4.60;99.90;;;;;;5036829;28;20206;-63
2022/11/29 03:46:07;;;;;;;43.20;26.27;;;4.60;99.90;;;;;;5036970;28;20919;-63
2022/11/29 03:48:38;;;;;;;41.60;26.90;;;4.60;99.90;;;;;;5036963;28;20204;-63
2022/11/29 03:51:18;;;;;;;42.50;28.23;;;4.60;99.90;;;;;;5036856;28;20760;-63
2022/11/29 03:54:11;;;;;;;45.00;27.93;;;4.60;99.90;;;;;;5036449;28;20241;-64
2022/11/29 03:56:39;;;;;;;41.40;25.97;;;4.50;99.90;;;;;;5036405;28;20205;-64
2022/11/29 03:59:33;;;;;;;47.17;28.80;;;4.50;99.90;;;;;;5036469;28;20262;-63
2022/11/29 04:02:49;;;;;;;42.67;28.33;;;4.60;99.90;;;;;;5036187;28;20272;-64
2022/11/29 04:05:30;;;;;;;41.60;26.97;;;4.60;99.90;;;;;;5035781;28;20206;-64
2022/11/29 04:08:03;;;;;;;38.20;25.57;;;4.60;99.90;;;;;;5036070;28;20446;-64
2022/11/29 04:10:49;;;;;;;38.37;25.93;;;4.60;99.90;;;;;;5034559;28;20234;-63
2022/11/29 04:13:50;;;;;;;36.90;24.90;;;4.60;99.90;;;;;;5037253;28;20234;-63
2022/11/29 04:16:58;;;;;;;40.57;28.47;;;4.50;99.90;;;;;;5034774;28;20217;-64
2022/11/29 04:19:45;;;;;;;40.53;27.30;;;4.60;99.90;;;;;;5035798;28;20583;-64
2022/11/29 04:22:41;;;;;;;41.27;26.00;;;4.60;99.90;;;;;;5036085;28;20225;-63
2022/11/29 04:25:25;;;;;;;40.00;26.83;;;4.70;99.90;;;;;;5035010;28;20200;-62
2022/11/29 04:28:30;;;;;;;44.03;26.53;;;4.70;99.90;;;;;;5034204;28;20282;-64
2022/11/29 04:31:19;;;;;;;39.13;25.13;;;4.70;99.90;;;;;;5027588;28;20324;-63
2022/11/29 04:34:22;;;;;;;41.00;25.53;;;4.70;99.90;;;;;;5036055;28;20560;-62
2022/11/29 04:37:09;;;;;;;40.00;27.10;;;4.80;99.90;;;;;;5035935;28;20288;-62
2022/11/29 04:40:02;;;;;;;39.27;26.23;;;4.80;99.90;;;;;;5035765;28;20560;-63
2022/11/29 04:43:08;;;;;;;37.20;24.87;;;4.80;99.90;;;;;;5035904;28;20205;-63
2022/11/29 04:45:56;;;;;;;42.70;27.77;;;4.80;99.90;;;;;;5035936;28;20210;-63
2022/11/29 04:48:40;;;;;;;35.67;25.07;;;4.80;99.90;;;;;;5011259;28;20211;-63
2022/11/29 04:51:30;;;;;;;40.20;25.93;;;4.80;99.90;;;;;;5033428;28;20214;-63
2022/11/29 04:54:08;;;;;;;43.10;27.63;;;4.80;99.90;;;;;;5034611;28;20655;-63
2022/11/29 04:56:47;;;;;;;39.27;25.47;;;4.80;99.90;;;;;;5035955;28;20571;-63
2022/11/29 04:59:29;;;;;;;37.33;25.33;;;4.80;99.90;;;;;;5033514;28;20240;-63
2022/11/29 05:02:11;;;;;;;34.13;25.63;;;4.70;99.90;;;;;;5026355;28;20306;-62
2022/11/29 05:04:50;;;;;;;45.47;27.03;;;4.70;99.90;;;;;;5025401;28;20199;-62
2022/11/29 05:07:38;;;;;;;48.03;26.63;;;4.70;99.90;;;;;;5025720;28;20207;-62
2022/11/29 05:10:36;;;;;;;38.53;26.07;;;4.70;99.90;;;;;;5023666;28;20190;-63
2022/11/29 05:13:33;;;;;;;39.07;24.93;;;4.60;99.90;;;;;;5020889;28;20198;-63
2022/11/29 05:16:14;;;;;;;42.00;27.93;;;4.70;99.90;;;;;;5024582;28;20291;-63
2022/11/29 05:19:30;;;;;;;43.20;27.90;;;4.70;99.90;;;;;;5033570;28;20252;-63
2022/11/29 05:22:24;;;;;;;39.97;26.63;;;4.70;99.90;;;;;;5022276;28;20272;-63
2022/11/29 05:25:12;;;;;;;37.93;24.37;;;4.80;99.90;;;;;;5022881;28;20243;-63
2022/11/29 05:27:54;;;;;;;36.70;27.33;;;4.70;99.90;;;;;;5025804;28;20902;-62
2022/11/29 05:30:32;;;;;;;39.40;27.23;;;4.70;99.90;;;;;;5027984;28;21095;-62
2022/11/29 05:33:27;;;;;;;36.77;26.17;;;4.70;99.90;;;;;;5037079;28;20203;-63
2022/11/29 05:36:15;;;;;;;59.90;29.23;;;4.80;99.90;;;;;;5036512;28;20201;-63
2022/11/29 05:39:00;;;;;;;41.07;25.43;;;4.80;99.90;;;;;;5027870;28;20207;-63
2022/11/29 05:41:36;;;;;;;39.17;27.07;;;4.80;99.90;;;;;;5029567;28;20299;-62
2022/11/29 05:44:31;;;;;;;40.60;25.27;;;4.80;99.90;;;;;;5029339;28;20223;-63
2022/11/29 05:47:02;;;;;;;43.43;27.37;;;4.80;99.90;;;;;;5028038;28;20221;-64
2022/11/29 05:49:48;;;;;;;36.80;25.40;;;4.80;99.90;;;;;;5026444;28;20212;-64
2022/11/29 05:52:23;;;;;;;37.77;25.23;;;4.80;99.90;;;;;;5028739;28;20557;-63
2022/11/29 05:55:13;;;;;;;40.43;26.80;;;4.90;99.90;;;;;;5028623;28;20215;-63
2022/11/29 05:58:07;;;;;;;38.30;25.57;;;4.80;99.90;;;;;;5028385;28;20336;-64
2022/11/29 06:00:44;;;;;;;39.93;25.20;;;4.70;99.90;;;;;;5028228;28;20241;-63
2022/11/29 06:03:33;;;;;;;33.73;23.43;;;4.70;99.90;;;;;;5027204;28;20238;-63
2022/11/29 06:06:14;;;;;;;39.97;25.70;;;4.60;99.90;;;;;;5028961;28;20206;-63
2022/11/29 06:09:11;;;;;;;40.37;25.73;;;4.60;99.90;;;;;;5027756;28;20317;-63
2022/11/29 06:11:55;;;;;;;40.53;25.80;;;4.60;99.90;;;;;;5025899;28;20215;-63
2022/11/29 06:14:33;;;;;;;38.43;26.53;;;4.60;99.90;;;;;;5027485;28;20218;-64
2022/11/29 06:17:17;;;;;;;37.30;25.57;;;4.60;99.90;;;;;;5028015;28;20206;-64
2022/11/29 06:19:42;;;;;;;39.97;26.10;;;4.60;99.90;;;;;;5025353;28;20689;-63
2022/11/29 06:22:33;;;;;;;37.70;24.73;;;4.60;99.90;;;;;;5028616;28;20231;-62
2022/11/29 06:25:25;;;;;;;41.53;25.70;;;4.60;99.90;;;;;;5027304;28;20195;-62
2022/11/29 06:28:16;;;;;;;42.77;25.43;;;4.60;99.90;;;;;;5026614;28;20625;-63
2022/11/29 06:31:01;;;;;;;42.87;26.17;;;4.60;99.90;;;;;;5032594;28;20205;-63
2022/11/29 06:33:33;;;;;;;34.80;24.10;;;4.60;99.90;;;;;;5023442;28;20199;-64
2022/11/29 06:36:25;;;;;;;38.20;25.60;;;4.60;99.90;;;;;;5028499;28;20203;-64
2022/11/29 06:38:50;;;;;;;38.97;25.00;;;4.60;99.90;;;;;;5028827;28;20214;-64
2022/11/29 06:41:21;;;;;;;40.23;26.20;;;4.60;99.90;;;;;;5026507;28;20218;-63
2022/11/29 06:43:47;;;;;;;42.93;28.70;;;4.60;99.90;;;;;;5028478;28;20724;-64
2022/11/29 06:46:27;;;;;;;43.33;26.17;;;4.60;99.90;;;;;;5021524;28;20203;-62
2022/11/29 06:49:11;;;;;;;41.23;27.90;;;4.60;99.90;;;;;;5029765;28;20650;-62
2022/11/29 06:51:54;;;;;;;41.70;26.33;;;4.60;99.90;;;;;;5027487;28;20245;-61
2022/11/29 06:54:38;;;;;;;40.50;25.80;;;4.60;99.90;;;;;;5031148;28;20218;-62
2022/11/29 06:57:20;;;;;;;45.13;26.43;;;4.60;99.90;;;;;;5026874;28;20217;-63
2022/11/29 07:00:05;;;;;;;38.27;26.53;;;4.70;99.90;;;;;;5027489;28;20207;-61
2022/11/29 07:02:44;;;;;;;42.90;26.80;;;4.70;99.90;;;;;;5025162;28;20221;-62
2022/11/29 07:05:28;;;;;;;39.40;25.83;;;4.80;99.90;;;;;;5028166;28;20665;-61
2022/11/29 07:07:57;;;;;;;36.03;26.03;;;4.80;99.90;;;;;;5027152;28;20217;-62
2022/11/29 07:10:23;;;;;;;38.77;25.53;;;4.80;99.90;;;;;;5027279;28;20688;-62
2022/11/29 07:12:50;;;;;;;39.13;27.63;;;4.80;99.90;;;;;;5025690;28;20257;-64
2022/11/29 07:15:19;;;;;;;35.77;24.50;;;4.90;99.90;;;;;;5025220;28;20207;-61
2022/11/29 07:17:53;;;;;;;36.30;25.33;;;4.80;99.90;;;;;;5026676;28;20206;-62
2022/11/29 07:20:50;;;;;;;33.93;24.77;;;4.80;99.90;;;;;;5025219;28;20232;-65
2022/11/29 07:23:49;;;;;;;37.60;25.33;;;4.80;99.90;;;;;;5025237;28;20203;-63
2022/11/29 07:26:27;;;;;;;37.50;25.37;;;4.80;99.90;;;;;;5020170;28;20309;-63
2022/11/29 07:29:32;;;;;;;36.70;25.63;;;4.80;99.90;;;;;;5022801;28;20249;-69
2022/11/29 07:32:27;;;;;;;40.57;25.97;;;4.80;99.90;;;;;;5020509;28;20257;-59
2022/11/29 07:35:00;;;;;;;39.40;26.30;;;4.90;99.90;;;;;;5026512;28;20218;-59
2022/11/29 07:37:26;;;;;;;37.97;25.57;;;4.90;99.90;;;;;;5022339;28;20582;-60
2022/11/29 07:40:34;;;;;;;38.47;25.80;;;4.90;99.90;;;;;;5029324;28;20309;-60
2022/11/29 07:43:22;;;;;;;38.63;25.70;;;4.90;99.90;;;;;;5034769;28;20214;-60
2022/11/29 07:45:48;;;;;;;41.17;27.37;;;4.90;99.90;;;;;;5020949;28;20281;-61
2022/11/29 07:48:15;;;;;;;38.17;25.60;;;4.90;99.90;;;;;;5024841;28;20211;-61
2022/11/29 07:50:41;;;;;;;39.10;25.77;;;4.90;99.90;;;;;;5022988;28;20211;-62
2022/11/29 07:53:20;;;;;;;40.47;25.50;;;5.00;99.90;;;;;;5029281;28;20199;-61
2022/11/29 07:55:47;;;;;;;37.80;25.97;;;5.00;99.90;;;;;;5025094;28;20206;-60
2022/11/29 07:58:14;;;;;;;41.50;26.60;;;4.90;99.90;;;;;;5027491;28;20243;-61
2022/11/29 08:00:43;;;;;;;41.57;25.07;;;4.90;99.90;;;;;;5023154;28;20585;-60
2022/11/29 08:03:09;;;;;;;37.93;24.90;;;4.90;99.90;;;;;;5026018;28;20693;-61
2022/11/29 08:05:36;;;;;;;36.20;24.57;;;4.90;99.90;;;;;;5026217;28;20277;-61
2022/11/29 08:08:02;;;;;;;33.67;24.60;;;5.00;99.90;;;;;;5028572;28;21311;-61
2022/11/29 08:10:28;;;;;;;39.30;25.47;;;5.00;99.90;;;;;;5034697;28;20205;-60
2022/11/29 08:12:53;;;;;;;38.73;25.27;;;5.00;99.90;;;;;;5035991;28;20288;-60
2022/11/29 08:15:21;;;;;;;35.73;23.87;;;5.00;99.90;;;;;;5037579;28;20199;-60
2022/11/29 08:17:47;;;;;;;41.43;25.17;;;5.00;99.90;;;;;;5033836;28;20194;-60
2022/11/29 08:20:13;;;;;;;39.10;24.77;;;5.10;99.90;;;;;;5034780;28;20222;-60
2022/11/29 08:22:39;;;;;;;36.67;24.77;;;5.10;99.90;;;;;;5034901;28;20689;-60
2022/11/29 08:25:06;;;;;;;32.90;23.73;;;5.00;99.90;;;;;;5033574;28;20286;-60
2022/11/29 08:27:32;;;;;;;35.50;23.33;;;5.10;99.90;;;;;;5032144;28;20215;-59
2022/11/29 08:29:58;;;;;;;38.33;24.07;;;5.00;99.90;;;;;;5026964;28;20253;-60
2022/11/29 08:32:24;;;;;;;40.43;24.97;;;5.00;99.90;;;;;;5023489;28;20195;-60
2022/11/29 08:34:49;;;;;;;37.83;24.70;;;5.00;99.90;;;;;;5024135;28;20615;-60
2022/11/29 08:37:15;;;;;;;38.03;24.10;;;5.00;99.90;;;;;;5023524;28;20261;-59
2022/11/29 08:39:40;;;;;;;38.47;25.27;;;5.00;99.90;;;;;;5023978;28;20283;-59
2022/11/29 08:42:06;;;;;;;35.00;25.83;;;5.10;99.90;;;;;;5025953;28;20302;-59
2022/11/29 08:44:32;;;;;;;40.77;25.27;;;5.10;99.90;;;;;;5029802;28;20550;-59
2022/11/29 08:50:00;;;;;;;37.23;24.20;;;5.10;99.90;;;;;;5028161;28;20811;-60
2022/11/29 08:55:10;;;;;;;35.77;24.80;;;5.20;99.90;;;;;;5027235;28;20233;-60
2022/11/29 08:57:35;;;;;;;36.50;24.43;;;5.30;99.90;;;;;;5028675;28;20226;-61
2022/11/29 09:00:01;;;;;;;38.60;24.63;;;5.20;99.90;;;;;;5026150;28;20270;-61
2022/11/29 09:02:27;;;;;;;35.23;24.07;;;5.30;99.90;;;;;;5029862;28;20245;-60
2022/11/29 09:04:52;;;;;;;37.27;24.63;;;5.40;99.90;;;;;;5032947;28;20256;-60
2022/11/29 09:07:17;;;;;;;36.03;22.40;;;5.50;99.90;;;;;;5036631;28;20199;-61
2022/11/29 09:09:43;;;;;;;33.63;21.93;;;5.50;99.90;;;;;;5036337;28;20674;-60
2022/11/29 09:12:08;;;;;;;38.77;23.90;;;5.40;99.90;;;;;;5035192;28;20209;-60
2022/11/29 09:14:34;;;;;;;36.47;23.73;;;5.40;99.90;;;;;;5039778;28;20195;-61
2022/11/29 09:17:00;;;;;;;39.13;24.80;;;5.40;99.90;;;;;;5037039;28;20732;-61
2022/11/29 09:19:26;;;;;;;38.47;26.83;;;5.50;99.90;;;;;;5038672;28;20736;-62
2022/11/29 09:21:52;;;;;;;35.97;23.77;;;5.50;99.90;;;;;;5040826;28;20313;-61
2022/11/29 09:24:19;;;;;;;37.73;24.53;;;5.70;99.90;;;;;;5034032;28;20696;-60
2022/11/29 09:26:47;;;;;;;37.43;25.37;;;5.70;99.90;;;;;;5035686;28;20269;-60
2022/11/29 09:29:14;;;;;;;38.37;25.00;;;5.70;99.90;;;;;;5037780;28;20214;-60
2022/11/29 09:31:40;;;;;;;39.37;26.17;;;5.80;99.90;;;;;;5037808;28;20721;-60
2022/11/29 09:34:05;;;;;;;34.60;23.00;;;5.80;99.90;;;;;;5036045;28;20238;-61
2022/11/29 09:36:31;;;;;;;33.83;23.13;;;5.80;99.90;;;;;;5038035;28;20239;-60
2022/11/29 09:38:59;;;;;;;40.13;24.93;;;5.80;99.90;;;;;;5036845;28;20206;-61
2022/11/29 09:41:40;;;;;;;34.93;25.07;;;5.90;99.90;;;;;;5038889;28;20219;-61
2022/11/29 09:44:16;;;;;;;35.80;25.53;;;5.90;99.90;;;;;;5036402;28;20209;-61
2022/11/29 09:47:03;;;;;;;36.77;24.17;;;6.00;99.90;;;;;;5034615;28;20221;-61
2022/11/29 09:49:31;;;;;;;37.00;24.10;;;6.00;99.90;;;;;;5038333;28;20252;-61
2022/11/29 09:52:29;;;;;;;31.73;22.00;;;6.00;99.90;;;;;;5035220;28;20194;-61
2022/11/29 09:55:18;;;;;;;39.03;23.97;;;6.00;99.90;;;;;;5024025;28;20345;-60
2022/11/29 09:57:45;;;;;;;37.27;24.73;;;6.00;99.90;;;;;;5023701;28;20243;-59
2022/11/29 10:00:16;;;;;;;32.67;23.37;;;6.10;99.90;;;;;;5041540;28;20206;-60
2022/11/29 10:03:01;;;;;;;35.97;23.77;;;6.20;99.90;;;;;;5033656;28;20270;-59
2022/11/29 10:05:48;;;;;;;32.10;23.57;;;6.30;99.90;;;;;;5038485;28;20329;-63
2022/11/29 10:08:22;;;;;;;35.07;24.47;;;6.30;99.90;;;;;;5036839;28;20733;-64
2022/11/29 10:10:52;;;;;;;32.10;22.90;;;6.30;99.90;;;;;;5034661;28;20693;-64
2022/11/29 10:13:29;;;;;;;34.90;24.73;;;6.40;99.90;;;;;;5038121;28;20213;-64
2022/11/29 10:16:00;;;;;;;32.07;22.77;;;6.40;99.90;;;;;;5033337;28;20580;-63
2022/11/29 10:18:37;;;;;;;34.30;24.50;;;6.40;99.90;;;;;;5024611;28;20298;-63
2022/11/29 10:21:16;;;;;;;35.60;23.63;;;6.40;99.90;;;;;;5037476;28;20693;-64
2022/11/29 10:23:52;;;;;;;35.23;23.67;;;6.50;99.90;;;;;;5038394;28;20198;-62
2022/11/29 10:26:19;;;;;;;36.43;24.73;;;6.50;99.90;;;;;;5037924;28;20337;-62
2022/11/29 10:28:47;;;;;;;36.33;23.13;;;6.60;99.90;;;;;;5037249;28;20192;-63
2022/11/29 10:31:27;;;;;;;41.07;24.83;;;6.60;99.90;;;;;;5035536;28;20741;-66
2022/11/29 10:33:56;;;;;;;45.10;25.00;;;6.50;99.90;;;;;;5036864;28;20700;-61
2022/11/29 10:36:26;;;;;;;36.33;23.90;;;6.50;99.90;;;;;;5035646;28;20207;-65
2022/11/29 10:38:58;;;;;;;33.97;24.53;;;6.40;99.90;;;;;;5028765;28;20650;-63
2022/11/29 10:41:24;;;;;;;37.57;24.43;;;6.50;99.90;;;;;;5035994;28;20709;-65
2022/11/29 10:43:53;;;;;;;32.60;22.93;;;6.50;99.90;;;;;;5038429;28;20222;-65
2022/11/29 10:46:38;;;;;;;36.33;25.33;;;6.60;99.90;;;;;;5034783;28;20195;-64
2022/11/29 10:49:10;;;;;;;36.73;24.10;;;6.60;99.90;;;;;;5037077;28;20207;-65
2022/11/29 10:51:36;;;;;;;36.73;23.67;;;6.60;99.90;;;;;;5036633;28;20230;-66
2022/11/29 10:54:28;;;;;;;32.43;23.47;;;6.60;99.90;;;;;;5040653;28;20266;-66
2022/11/29 10:56:57;;;;;;;42.73;24.70;;;6.70;99.90;;;;;;5033516;28;20525;-65
2022/11/29 10:59:25;;;;;;;36.07;24.63;;;6.70;99.90;;;;;;5037486;28;20758;-65
2022/11/29 11:01:51;;;;;;;36.10;25.17;;;6.60;99.90;;;;;;5033989;28;20409;-65
2022/11/29 11:04:32;;;;;;;40.23;25.43;;;6.50;99.90;;;;;;5027972;28;20294;-65
2022/11/29 11:07:01;;;;;;;34.13;24.10;;;6.40;99.90;;;;;;5023144;28;20210;-65
2022/11/29 11:09:38;;;;;;;36.37;25.93;;;6.40;99.90;;;;;;5025924;28;20539;-65
2022/11/29 11:12:15;;;;;;;41.53;23.23;;;6.40;99.90;;;;;;5029915;28;20608;-65
2022/11/29 11:14:42;;;;;;;36.40;24.67;;;6.50;99.90;;;;;;5040983;28;20198;-65
2022/11/29 11:17:22;;;;;;;36.77;23.87;;;6.50;99.90;;;;;;5030632;28;20195;-65
2022/11/29 11:19:57;;;;;;;37.27;24.63;;;6.40;99.90;;;;;;5037093;28;20212;-65
2022/11/29 11:22:24;;;;;;;39.53;25.70;;;6.30;99.90;;;;;;5037205;28;21044;-65
2022/11/29 11:25:03;;;;;;;35.60;25.10;;;6.30;99.90;;;;;;5033454;28;20249;-68
2022/11/29 11:27:33;;;;;;;40.57;24.47;;;6.30;99.90;;;;;;5032996;28;20671;-66
2022/11/29 11:30:00;;;;;;;37.10;25.60;;;6.30;99.90;;;;;;5040454;28;20285;-66
2022/11/29 11:32:26;;;;;;;35.80;24.00;;;6.30;99.90;;;;;;5027787;28;20207;-66
2022/11/29 11:34:54;;;;;;;40.07;25.70;;;6.30;99.90;;;;;;5025451;28;20194;-65
2022/11/29 11:37:26;;;;;;;44.40;26.37;;;6.40;99.90;;;;;;5025709;28;20203;-67
2022/11/29 11:39:55;;;;;;;36.00;24.57;;;6.40;99.90;;;;;;5025329;28;20281;-66
2022/11/29 11:42:41;;;;;;;37.67;25.27;;;6.40;99.90;;;;;;5025465;28;20611;-67
2022/11/29 11:45:10;;;;;;;40.27;26.23;;;6.50;99.90;;;;;;5025127;28;20229;-66
2022/11/29 11:47:47;;;;;;;43.10;26.40;;;6.60;99.90;;;;;;5024347;28;20234;-68
2022/11/29 11:50:23;;;;;;;39.43;23.80;;;6.70;99.90;;;;;;5024051;28;20633;-65
2022/11/29 11:52:52;;;;;;;40.20;26.00;;;6.70;99.90;;;;;;5026668;28;20201;-67
2022/11/29 11:55:20;;;;;;;37.73;26.27;;;6.80;99.90;;;;;;5026702;28;20291;-73
2022/11/29 11:57:56;;;;;;;42.10;24.47;;;6.80;99.90;;;;;;5025716;28;20220;-71
2022/11/29 12:00:52;;;;;;;43.13;24.47;;;6.90;99.90;;;;;;5027174;28;20622;-65
2022/11/29 12:03:39;;;;;;;37.70;25.47;;;6.90;99.90;;;;;;5017705;28;20498;-71
2022/11/29 12:06:26;;;;;;;44.80;27.80;;;7.00;99.90;;;;;;5023901;28;20203;-71
2022/11/29 12:09:15;;;;;;;34.90;24.63;;;7.00;99.90;;;;;;5025397;28;20261;-71
2022/11/29 12:12:06;;;;;;;35.80;24.60;;;6.90;99.90;;;;;;5022588;28;20219;-71
2022/11/29 12:14:48;;;;;;;37.57;23.63;;;6.80;99.90;;;;;;5026323;28;20715;-71
2022/11/29 12:17:26;;;;;;;37.70;25.20;;;6.80;99.90;;;;;;5027730;28;20692;-70
2022/11/29 12:20:13;;;;;;;36.90;25.33;;;6.80;99.90;;;;;;5025769;28;20542;-70
2022/11/29 12:22:47;;;;;;;37.17;25.70;;;6.80;99.90;;;;;;5033326;28;20702;-70
2022/11/29 12:25:17;;;;;;;34.97;24.30;;;6.90;99.90;;;;;;5033455;28;20210;-71
2022/11/29 12:27:42;;;;;;;41.53;26.43;;;7.00;99.90;;;;;;5022789;28;20195;-71
2022/11/29 12:30:13;;;;;;;35.43;25.20;;;6.90;99.90;;;;;;5034709;28;20203;-71
2022/11/29 12:32:48;;;;;;;39.70;25.17;;;7.00;99.90;;;;;;5022905;28;20199;-71
2022/11/29 12:35:47;;;;;;;39.57;25.50;;;7.00;99.90;;;;;;5028864;28;20217;-71
2022/11/29 12:38:35;;;;;;;38.47;24.43;;;6.90;99.90;;;;;;5029785;28;20202;-71
2022/11/29 12:41:21;;;;;;;43.57;27.00;;;6.80;99.90;;;;;;5023605;28;20672;-71
2022/11/29 12:44:04;;;;;;;41.20;25.90;;;6.70;99.90;;;;;;5025628;28;20205;-70
2022/11/29 12:46:31;;;;;;;40.10;25.60;;;6.80;99.90;;;;;;5025784;28;20685;-70
2022/11/29 12:49:09;;;;;;;40.50;27.47;;;6.70;99.90;;;;;;5025287;28;20218;-71
2022/11/29 12:51:58;;;;;;;38.90;25.53;;;6.70;99.90;;;;;;5029932;28;20209;-72
2022/11/29 12:54:37;;;;;;;40.87;27.07;;;6.70;99.90;;;;;;5025227;28;20334;-71
2022/11/29 12:57:40;;;;;;;41.13;25.03;;;6.60;99.90;;;;;;5030258;28;20203;-71
2022/11/29 13:00:12;;;;;;;37.63;25.70;;;6.70;99.90;;;;;;5022688;28;20214;-72
2022/11/29 13:03:12;;;;;;;39.17;26.13;;;6.80;99.90;;;;;;5025994;28;20305;-71
2022/11/29 13:06:11;;;;;;;40.63;27.23;;;6.80;99.90;;;;;;5024568;28;20603;-70
2022/11/29 13:09:01;;;;;;;39.00;25.90;;;6.80;99.90;;;;;;5027776;28;20199;-71
2022/11/29 13:11:57;;;;;;;46.87;29.40;;;6.70;99.90;;;;;;5024848;28;20196;-71
2022/11/29 13:14:39;;;;;;;37.77;26.97;;;6.80;99.90;;;;;;5025129;28;20446;-71
2022/11/29 13:17:46;;;;;;;40.70;26.50;;;6.80;99.90;;;;;;5027694;28;20334;-71
2022/11/29 13:20:39;;;;;;;40.23;26.27;;;6.90;99.90;;;;;;4999576;28;20214;-70
2022/11/29 13:23:24;;;;;;;45.50;27.07;;;6.80;99.90;;;;;;5025883;28;20612;-71
2022/11/29 13:25:53;;;;;;;42.67;28.50;;;6.70;99.90;;;;;;5023996;28;20195;-71
2022/11/29 13:28:30;;;;;;;46.97;28.10;;;6.70;99.90;;;;;;5027611;28;20202;-71
2022/11/29 13:31:01;;;;;;;42.83;27.13;;;6.60;99.90;;;;;;5021729;28;20203;-71